createdAt,value
2023-04-29T00:01:05.344Z,3.28
2023-04-29T00:03:46.504Z,3.10
2023-04-29T00:06:17.261Z,4.28
2023-04-29T00:08:55.042Z,4.78
2023-04-29T00:11:25.094Z,3.60
2023-04-29T00:13:55.182Z,3.38
2023-04-29T00:16:25.482Z,6.65
2023-04-29T00:18:59.817Z,8.02
2023-04-29T00:21:30.456Z,5.75
2023-04-29T00:24:03.775Z,12.00
2023-04-29T00:26:36.198Z,5.40
2023-04-29T00:29:06.287Z,9.18
2023-04-29T00:31:37.632Z,10.77
2023-04-29T00:34:07.989Z,6.90
2023-04-29T00:36:38.036Z,8.15
2023-04-29T00:39:11.188Z,8.05
2023-04-29T00:41:42.767Z,6.57
2023-04-29T00:44:14.637Z,11.05
2023-04-29T00:46:47.087Z,5.93
2023-04-29T00:49:17.936Z,7.43
2023-04-29T00:51:53.532Z,5.35
2023-04-29T00:54:26.421Z,7.18
2023-04-29T00:56:59.956Z,7.13
2023-04-29T00:59:32.785Z,7.72
2023-04-29T01:02:04.197Z,8.73
2023-04-29T01:04:36.148Z,9.27
2023-04-29T01:07:13.040Z,9.85
2023-04-29T01:10:04.979Z,6.78
2023-04-29T01:12:43.333Z,6.57
2023-04-29T01:15:21.221Z,7.03
2023-04-29T01:17:58.879Z,7.72
2023-04-29T01:20:30.449Z,7.50
2023-04-29T01:23:02.490Z,6.18
2023-04-29T01:25:35.804Z,7.22
2023-04-29T01:28:29.077Z,4.63
2023-04-29T01:31:06.788Z,7.68
2023-04-29T01:33:47.315Z,6.88
2023-04-29T01:36:26.183Z,5.47
2023-04-29T01:39:08.241Z,7.13
2023-04-29T01:41:46.429Z,9.15
2023-04-29T01:44:26.964Z,8.05
2023-04-29T01:46:57.996Z,5.95
2023-04-29T01:49:39.852Z,5.65
2023-04-29T01:52:10.339Z,4.82
2023-04-29T01:54:41.977Z,8.27
2023-04-29T01:57:14.614Z,6.43
2023-04-29T02:00:00.258Z,4.57
2023-04-29T02:02:49.926Z,4.68
2023-04-29T02:05:36.930Z,4.72
2023-04-29T02:08:07.782Z,5.47
2023-04-29T02:10:45.368Z,5.60
2023-04-29T02:13:33.795Z,4.43
2023-04-29T02:16:11.523Z,3.95
2023-04-29T02:18:48.552Z,4.13
2023-04-29T02:21:21.277Z,7.47
2023-04-29T02:23:52.144Z,6.90
2023-04-29T02:26:22.122Z,2.90
2023-04-29T02:28:57.518Z,12.43
2023-04-29T02:31:30.934Z,8.07
2023-04-29T02:34:07.134Z,13.13
2023-04-29T02:36:40.670Z,13.27
2023-04-29T02:39:11.429Z,10.95
2023-04-29T02:41:42.370Z,12.98
2023-04-29T02:44:17.176Z,7.75
2023-04-29T02:46:53.294Z,12.55
2023-04-29T02:49:25.914Z,8.98
2023-04-29T02:51:56.632Z,5.85
2023-04-29T02:54:30.089Z,7.38
2023-04-29T02:57:01.565Z,8.10
2023-04-29T02:59:34.271Z,7.22
2023-04-29T03:02:04.894Z,5.90
2023-04-29T03:04:37.127Z,6.63
2023-04-29T03:07:10.843Z,9.05
2023-04-29T03:09:43.176Z,6.17
2023-04-29T03:12:20.485Z,8.13
2023-04-29T03:14:53.672Z,9.45
2023-04-29T03:17:24.196Z,10.93
2023-04-29T03:19:56.006Z,7.88
2023-04-29T03:22:26.958Z,9.40
2023-04-29T03:24:57.228Z,11.35
2023-04-29T03:27:29.879Z,9.13
2023-04-29T03:30:02.830Z,8.77
2023-04-29T03:32:35.605Z,10.75
2023-04-29T03:35:14.130Z,7.33
2023-04-29T03:37:57.792Z,6.18
2023-04-29T03:40:41.927Z,8.35
2023-04-29T03:43:14.531Z,6.75
2023-04-29T03:45:50.964Z,9.45
2023-04-29T03:48:30.350Z,11.85
2023-04-29T03:51:01.364Z,11.98
2023-04-29T03:53:31.749Z,8.70
2023-04-29T03:56:02.789Z,8.85
2023-04-29T03:58:34.847Z,9.52
2023-04-29T04:01:07.859Z,9.30
2023-04-29T04:03:45.794Z,14.90
2023-04-29T04:06:16.881Z,11.43
2023-04-29T04:08:50.044Z,9.57
2023-04-29T04:11:31.236Z,11.00
2023-04-29T04:16:41.072Z,6.47
2023-04-29T04:19:12.714Z,8.20
2023-04-29T04:21:46.599Z,8.57
2023-04-29T04:24:20.094Z,10.57
2023-04-29T04:26:50.779Z,18.50
2023-04-29T04:29:25.775Z,12.15
2023-04-29T04:32:18.121Z,15.38
2023-04-29T04:34:48.675Z,8.63
2023-04-29T04:37:21.347Z,16.48
2023-04-29T04:39:56.451Z,13.20
2023-04-29T04:42:26.608Z,15.25
2023-04-29T04:45:02.152Z,21.45
2023-04-29T04:47:49.930Z,15.50
2023-04-29T04:50:25.505Z,21.85
2023-04-29T04:53:04.754Z,17.83
2023-04-29T04:55:53.235Z,22.17
2023-04-29T04:58:26.844Z,21.42
2023-04-29T05:00:57.296Z,15.17
2023-04-29T05:03:34.807Z,9.80
2023-04-29T05:06:05.299Z,13.07
2023-04-29T05:08:36.105Z,18.17
2023-04-29T05:11:08.213Z,11.73
2023-04-29T05:13:38.592Z,12.07
2023-04-29T05:16:17.102Z,13.43
2023-04-29T05:18:53.413Z,16.95
2023-04-29T05:23:58.660Z,9.95
2023-04-29T05:26:29.797Z,15.52
2023-04-29T05:29:05.836Z,15.82
2023-04-29T05:31:42.983Z,16.20
2023-04-29T05:34:22.996Z,9.77
2023-04-29T05:36:53.193Z,13.68
2023-04-29T05:39:23.379Z,13.70
2023-04-29T05:42:07.050Z,9.90
2023-04-29T05:44:41.841Z,16.50
2023-04-29T05:47:19.401Z,13.85
2023-04-29T05:49:52.599Z,9.38
2023-04-29T05:52:23.071Z,6.53
2023-04-29T05:54:53.977Z,14.40
2023-04-29T05:57:24.258Z,11.77
2023-04-29T05:59:55.387Z,17.23
2023-04-29T06:02:25.522Z,14.07
2023-04-29T06:05:00.539Z,11.35
2023-04-29T06:07:41.864Z,11.05
2023-04-29T06:10:37.260Z,14.27
2023-04-29T06:13:11.823Z,7.72
2023-04-29T06:15:42.149Z,14.25
2023-04-29T06:18:14.650Z,11.18
2023-04-29T06:20:48.869Z,9.05
2023-04-29T06:23:23.501Z,14.43
2023-04-29T06:25:56.488Z,13.68
2023-04-29T06:28:30.174Z,10.35
2023-04-29T06:31:02.304Z,8.68
2023-04-29T06:33:34.397Z,9.15
2023-04-29T06:36:11.127Z,7.45
2023-04-29T06:38:41.149Z,8.15
2023-04-29T06:41:29.665Z,5.65
2023-04-29T06:44:19.464Z,7.18
2023-04-29T06:47:04.642Z,6.03
2023-04-29T06:50:00.591Z,7.50
2023-04-29T06:52:33.668Z,6.72
2023-04-29T06:55:03.858Z,5.90
2023-04-29T06:57:34.328Z,6.47
2023-04-29T07:00:06.975Z,4.93
2023-04-29T07:02:39.378Z,6.88
2023-04-29T07:05:10.721Z,9.13
2023-04-29T07:07:46.932Z,11.85
2023-04-29T07:10:19.362Z,7.85
2023-04-29T07:13:02.576Z,6.57
2023-04-29T07:15:33.512Z,7.63
2023-04-29T07:18:03.645Z,6.72
2023-04-29T07:20:41.327Z,5.18
2023-04-29T07:23:28.304Z,9.60
2023-04-29T07:26:00.538Z,6.80
2023-04-29T07:28:31.394Z,4.43
2023-04-29T07:31:02.351Z,6.18
2023-04-29T07:33:33.186Z,6.15
2023-04-29T07:36:07.499Z,4.13
2023-04-29T07:38:48.682Z,5.28
2023-04-29T07:41:22.561Z,7.40
2023-04-29T07:43:53.104Z,5.38
2023-04-29T07:46:25.065Z,4.13
2023-04-29T07:48:58.579Z,5.18
2023-04-29T07:51:30.307Z,7.72
2023-04-29T07:54:02.944Z,4.13
2023-04-29T07:56:35.111Z,3.65
2023-04-29T07:59:05.372Z,5.95
2023-04-29T08:01:35.704Z,5.05
2023-04-29T08:04:05.997Z,4.47
2023-04-29T08:06:41.906Z,6.50
2023-04-29T08:09:17.226Z,5.65
2023-04-29T08:11:47.901Z,4.28
2023-04-29T08:14:18.235Z,4.72
2023-04-29T08:17:00.482Z,4.35
2023-04-29T08:19:30.578Z,3.47
2023-04-29T08:22:04.379Z,2.50
2023-04-29T08:24:39.456Z,6.18
2023-04-29T08:27:09.665Z,3.90
2023-04-29T08:29:40.493Z,4.28
2023-04-29T08:32:10.688Z,4.72
2023-04-29T08:34:42.046Z,2.60
2023-04-29T08:37:17.673Z,4.15
2023-04-29T08:39:52.026Z,4.03
2023-04-29T08:42:33.399Z,4.68
2023-04-29T08:45:10.699Z,3.17
2023-04-29T08:47:42.689Z,2.80
2023-04-29T08:50:15.320Z,2.80
2023-04-29T08:52:45.473Z,3.42
2023-04-29T08:55:18.561Z,5.03
2023-04-29T08:57:51.795Z,4.68
2023-04-29T09:00:22.855Z,2.83
2023-04-29T09:02:54.555Z,4.28
2023-04-29T09:05:27.219Z,2.70
2023-04-29T09:08:00.017Z,1.83
2023-04-29T09:10:33.140Z,2.67
2023-04-29T09:13:05.643Z,4.18
2023-04-29T09:15:57.209Z,3.22
2023-04-29T09:18:45.929Z,2.63
2023-04-29T09:21:22.565Z,3.00
2023-04-29T09:23:55.588Z,3.05
2023-04-29T09:26:29.172Z,5.03
2023-04-29T09:29:21.957Z,2.47
2023-04-29T09:31:54.087Z,5.28
2023-04-29T09:34:35.891Z,4.60
2023-04-29T09:37:06.003Z,5.25
2023-04-29T09:39:42.751Z,4.20
2023-04-29T09:42:15.485Z,4.72
2023-04-29T09:44:47.432Z,3.67
2023-04-29T09:47:18.375Z,5.57
2023-04-29T09:49:50.253Z,4.40
2023-04-29T09:52:27.502Z,4.28
2023-04-29T09:55:08.717Z,3.90
2023-04-29T09:57:47.394Z,4.90
2023-04-29T10:00:19.919Z,4.30
2023-04-29T10:02:51.378Z,3.95
2023-04-29T10:05:22.949Z,2.83
2023-04-29T10:07:54.395Z,4.57
2023-04-29T10:10:29.556Z,5.22
2023-04-29T10:13:05.593Z,5.72
2023-04-29T10:15:43.223Z,3.70
2023-04-29T10:18:22.276Z,6.05
2023-04-29T10:20:53.934Z,5.60
2023-04-29T10:23:25.660Z,6.00
2023-04-29T10:25:56.640Z,4.65
2023-04-29T10:28:37.254Z,4.82
2023-04-29T10:31:13.600Z,3.47
2023-04-29T10:33:48.808Z,4.82
2023-04-29T10:36:19.214Z,6.40
2023-04-29T10:38:54.843Z,4.75
2023-04-29T10:41:30.253Z,5.20
2023-04-29T10:44:04.706Z,6.15
2023-04-29T10:46:35.403Z,5.15
2023-04-29T10:49:07.304Z,3.35
2023-04-29T10:51:42.332Z,3.05
2023-04-29T10:54:16.146Z,4.07
2023-04-29T10:56:51.383Z,4.07
2023-04-29T10:59:49.466Z,5.18
2023-04-29T11:02:21.069Z,3.88
2023-04-29T11:05:13.040Z,2.80
2023-04-29T11:07:44.575Z,3.15
2023-04-29T11:10:16.304Z,3.05
2023-04-29T11:12:46.474Z,2.78
2023-04-29T11:15:21.412Z,2.88
2023-04-29T11:17:53.041Z,3.60
2023-04-29T11:20:25.459Z,4.00
2023-04-29T11:22:58.001Z,2.78
2023-04-29T11:25:29.317Z,3.33
2023-04-29T11:28:02.049Z,2.47
2023-04-29T11:30:34.994Z,4.32
2023-04-29T11:33:05.650Z,3.20
2023-04-29T11:35:36.001Z,2.28
2023-04-29T11:38:08.004Z,4.20
2023-04-29T11:40:38.615Z,2.72
2023-04-29T11:43:16.088Z,2.97
2023-04-29T11:45:49.371Z,2.03
2023-04-29T11:48:24.378Z,2.53
2023-04-29T11:50:56.466Z,3.33
2023-04-29T11:53:28.897Z,2.60
2023-04-29T11:56:01.657Z,3.45
2023-04-29T11:58:31.752Z,3.10
2023-04-29T12:01:05.803Z,2.90
2023-04-29T12:03:36.969Z,1.90
2023-04-29T12:06:09.418Z,2.40
2023-04-29T12:08:39.462Z,3.38
2023-04-29T12:11:10.718Z,2.25
2023-04-29T12:13:49.464Z,2.92
2023-04-29T12:16:24.315Z,2.67
2023-04-29T12:18:55.078Z,3.28
2023-04-29T12:21:26.352Z,3.03
2023-04-29T12:23:56.698Z,2.80
2023-04-29T12:26:26.944Z,2.30
2023-04-29T12:28:57.969Z,2.90
2023-04-29T12:31:42.091Z,2.88
2023-04-29T12:34:12.228Z,2.38
2023-04-29T12:36:49.642Z,2.53
2023-04-29T12:39:21.417Z,3.92
2023-04-29T12:41:52.253Z,2.53
2023-04-29T12:44:23.281Z,3.88
2023-04-29T12:46:58.362Z,2.35
2023-04-29T12:49:29.001Z,2.33
2023-04-29T12:51:59.233Z,2.13
2023-04-29T12:54:29.305Z,2.20
2023-04-29T12:56:59.764Z,2.15
2023-04-29T12:59:29.781Z,2.00
2023-04-29T13:02:03.117Z,1.92
2023-04-29T13:04:36.182Z,1.55
2023-04-29T13:07:06.498Z,3.73
2023-04-29T13:09:42.628Z,2.40
2023-04-29T13:12:15.075Z,2.38
2023-04-29T13:14:45.670Z,2.25
2023-04-29T13:17:19.325Z,2.78
2023-04-29T13:19:51.710Z,1.60
2023-04-29T13:22:22.597Z,2.92
2023-04-29T13:24:53.499Z,3.03
2023-04-29T13:27:24.420Z,2.65
2023-04-29T13:29:54.640Z,1.95
2023-04-29T13:32:43.980Z,2.72
2023-04-29T13:37:53.612Z,1.67
2023-04-29T13:40:27.727Z,1.98
2023-04-29T13:43:06.079Z,1.67
2023-04-29T13:45:42.882Z,1.70
2023-04-29T13:54:25.319Z,2.90
2023-04-29T13:57:12.410Z,1.30
2023-04-29T14:04:27.673Z,2.78
2023-04-29T14:06:58.471Z,3.00
2023-04-29T14:09:29.197Z,2.03
2023-04-29T14:11:59.452Z,1.70
2023-04-29T14:14:30.126Z,4.00
2023-04-29T14:17:01.482Z,3.28
2023-04-29T14:19:34.182Z,2.80
2023-04-29T14:22:04.491Z,1.52
2023-04-29T14:24:35.013Z,2.30
2023-04-29T14:27:05.527Z,1.90
2023-04-29T14:29:39.814Z,2.53
2023-04-29T14:34:45.282Z,1.83
2023-04-29T14:37:15.677Z,0.80
2023-04-29T14:39:45.814Z,1.02
2023-04-29T14:42:16.911Z,2.55
2023-04-29T14:44:47.556Z,1.88
2023-04-29T14:47:17.583Z,1.70
2023-04-29T14:49:50.568Z,1.90
2023-04-29T14:52:21.712Z,2.42
2023-04-29T14:54:51.889Z,1.63
2023-04-29T14:57:22.019Z,1.63
2023-04-29T14:59:52.738Z,1.88
2023-04-29T15:02:25.855Z,2.55
2023-04-29T15:05:04.349Z,2.55
2023-04-29T15:07:35.817Z,1.83
2023-04-29T15:10:06.844Z,2.45
2023-04-29T15:12:39.283Z,2.50
2023-04-29T15:15:13.561Z,2.20
2023-04-29T15:17:43.917Z,1.80
2023-04-29T15:20:16.757Z,1.63
2023-04-29T15:22:47.502Z,2.33
2023-04-29T15:25:17.762Z,1.50
2023-04-29T15:27:48.032Z,1.58
2023-04-29T15:30:19.026Z,2.03
2023-04-29T15:32:49.201Z,2.42
2023-04-29T15:35:22.180Z,1.45
2023-04-29T15:37:52.341Z,2.00
2023-04-29T15:40:23.728Z,1.55
2023-04-29T15:42:55.921Z,1.55
2023-04-29T15:45:26.812Z,1.75
2023-04-29T15:48:00.197Z,1.27
2023-04-29T15:50:33.173Z,1.10
2023-04-29T15:53:03.386Z,1.08
2023-04-29T15:55:35.290Z,1.70
2023-04-29T15:58:05.804Z,1.10
2023-04-29T16:00:36.005Z,2.13
2023-04-29T16:03:06.928Z,1.63
2023-04-29T16:05:40.971Z,1.50
2023-04-29T16:08:11.231Z,1.40
2023-04-29T16:10:41.729Z,1.40
2023-04-29T16:13:11.819Z,1.10
2023-04-29T16:15:43.668Z,1.92
2023-04-29T16:18:15.213Z,1.15
2023-04-29T16:23:33.627Z,1.20
2023-04-29T16:26:06.924Z,1.20
2023-04-29T16:28:37.219Z,1.75
2023-04-29T16:31:08.373Z,1.48
2023-04-29T16:33:40.812Z,2.08
2023-04-29T16:36:14.057Z,2.35
2023-04-29T16:38:44.294Z,2.17
2023-04-29T16:41:17.288Z,1.75
2023-04-29T16:43:48.011Z,1.75
2023-04-29T16:46:21.636Z,2.08
2023-04-29T16:48:57.131Z,1.48
2023-04-29T16:51:30.616Z,1.45
2023-04-29T16:54:01.073Z,1.08
2023-04-29T16:56:31.738Z,1.80
2023-04-29T16:59:01.775Z,1.55
2023-04-29T17:01:34.994Z,1.73
2023-04-29T17:04:05.579Z,0.98
2023-04-29T17:06:40.102Z,1.20
2023-04-29T17:09:12.849Z,1.38
2023-04-29T17:11:43.725Z,1.38
2023-04-29T17:14:13.779Z,1.10
2023-04-29T17:16:46.885Z,0.85
2023-04-29T17:19:16.886Z,0.85
2023-04-29T17:21:50.730Z,0.95
2023-04-29T17:24:20.715Z,0.90
2023-04-29T17:26:51.020Z,0.93
2023-04-29T17:29:21.378Z,1.33
2023-04-29T17:31:59.391Z,1.50
2023-04-29T17:34:31.268Z,1.40
2023-04-29T17:37:04.610Z,1.10
2023-04-29T17:39:35.220Z,1.33
2023-04-29T17:42:05.271Z,1.13
2023-04-29T17:44:37.667Z,1.27
2023-04-29T17:47:10.394Z,1.38
2023-04-29T17:49:40.582Z,1.27
2023-04-29T17:52:14.226Z,0.90
2023-04-29T17:54:51.578Z,1.10
2023-04-29T17:57:21.490Z,1.00
2023-04-29T17:59:51.921Z,0.80
2023-04-29T18:02:37.029Z,1.23
2023-04-29T18:05:16.361Z,1.40
2023-04-29T18:07:48.886Z,0.82
2023-04-29T18:10:19.731Z,0.90
2023-04-29T18:12:50.052Z,0.80
2023-04-29T18:15:22.512Z,1.67
2023-04-29T18:17:54.506Z,0.88
2023-04-29T18:20:34.989Z,1.15
2023-04-29T18:23:07.669Z,1.77
2023-04-29T18:25:39.419Z,1.33
2023-04-29T18:28:24.228Z,1.30
2023-04-29T18:30:57.039Z,1.40
2023-04-29T18:33:31.134Z,1.48
2023-04-29T18:38:34.315Z,1.20
2023-04-29T18:41:06.878Z,0.90
2023-04-29T18:43:37.437Z,0.77
2023-04-29T18:46:07.655Z,1.00
2023-04-29T18:48:42.206Z,1.35
2023-04-29T18:51:12.859Z,0.80
2023-04-29T18:53:45.481Z,1.10
2023-04-29T18:56:15.932Z,1.20
2023-04-29T18:58:45.991Z,2.10
2023-04-29T19:01:17.286Z,1.45
2023-04-29T19:03:49.989Z,1.30
2023-04-29T19:06:21.997Z,1.38
2023-04-29T19:08:55.847Z,1.38
2023-04-29T19:11:28.387Z,1.92
2023-04-29T19:13:58.655Z,2.05
2023-04-29T19:16:34.075Z,1.63
2023-04-29T19:19:06.910Z,2.22
2023-04-29T19:21:37.067Z,1.67
2023-04-29T19:24:09.907Z,1.00
2023-04-29T19:26:40.572Z,0.93
2023-04-29T19:29:10.796Z,1.20
2023-04-29T19:31:41.763Z,1.60
2023-04-29T19:34:11.849Z,1.83
2023-04-29T19:36:41.925Z,1.75
2023-04-29T19:39:15.102Z,1.63
2023-04-29T19:41:45.255Z,1.60
2023-04-29T19:44:15.409Z,1.58
2023-04-29T19:46:45.971Z,1.60
2023-04-29T19:49:16.507Z,1.42
2023-04-29T19:51:46.848Z,1.67
2023-04-29T19:54:26.492Z,1.30
2023-04-29T19:56:58.984Z,1.52
2023-04-29T19:59:28.989Z,1.20
2023-04-29T20:01:59.781Z,2.22
2023-04-29T20:04:30.120Z,1.60
2023-04-29T20:07:02.657Z,1.77
2023-04-29T20:09:35.330Z,1.52
2023-04-29T20:12:05.645Z,1.55
2023-04-29T20:14:36.621Z,1.58
2023-04-29T20:17:06.760Z,1.33
2023-04-29T20:19:36.971Z,1.20
2023-04-29T20:22:07.010Z,1.70
2023-04-29T20:24:39.816Z,2.08
2023-04-29T20:27:09.866Z,1.10
2023-04-29T20:29:47.848Z,1.55
2023-04-29T20:32:21.224Z,1.42
2023-04-29T20:34:51.401Z,1.55
2023-04-29T20:37:29.986Z,1.70
2023-04-29T20:40:02.636Z,1.38
2023-04-29T20:42:35.200Z,1.58
2023-04-29T20:45:05.347Z,1.20
2023-04-29T20:47:38.469Z,1.10
2023-04-29T20:50:09.817Z,1.27
2023-04-29T20:52:41.885Z,1.30
2023-04-29T20:55:14.841Z,1.27
2023-04-29T20:57:45.098Z,1.90
2023-04-29T21:00:15.968Z,1.10
2023-04-29T21:02:46.342Z,1.00
2023-04-29T21:05:18.874Z,1.88
2023-04-29T21:07:49.409Z,2.40
2023-04-29T21:10:22.821Z,1.92
2023-04-29T21:12:56.215Z,1.40
2023-04-29T21:15:29.566Z,1.70
2023-04-29T21:18:00.955Z,1.05
2023-04-29T21:20:40.270Z,2.00
2023-04-29T21:23:11.307Z,1.45
2023-04-29T21:25:44.069Z,1.20
2023-04-29T21:28:20.592Z,1.20
2023-04-29T21:30:51.056Z,1.83
2023-04-29T21:33:21.994Z,1.02
2023-04-29T21:35:53.215Z,1.83
2023-04-29T21:38:23.433Z,1.83
2023-04-29T21:40:56.203Z,1.27
2023-04-29T21:43:30.390Z,1.80
2023-04-29T21:46:00.784Z,1.20
2023-04-29T21:48:30.773Z,1.63
2023-04-29T21:51:06.711Z,1.75
2023-04-29T21:53:38.264Z,1.60
2023-04-29T21:56:11.196Z,2.33
2023-04-29T21:58:42.016Z,1.80
2023-04-29T22:01:26.902Z,1.20
2023-04-29T22:04:00.162Z,1.60
2023-04-29T22:06:35.300Z,1.02
2023-04-29T22:09:05.392Z,2.20
2023-04-29T22:11:38.757Z,1.10
2023-04-29T22:14:08.965Z,1.67
2023-04-29T22:16:39.229Z,1.52
2023-04-29T22:19:10.052Z,1.10
2023-04-29T22:21:43.169Z,1.63
2023-04-29T22:24:13.610Z,1.00
2023-04-29T22:26:51.507Z,1.20
2023-04-29T22:29:24.392Z,0.70
2023-04-29T22:31:56.658Z,1.48
2023-04-29T22:34:28.787Z,1.65
2023-04-29T22:36:58.780Z,1.20
2023-04-29T22:39:31.228Z,1.48
2023-04-29T22:42:04.876Z,1.25
2023-04-29T22:44:34.930Z,1.08
2023-04-29T22:47:14.121Z,1.10
2023-04-29T22:49:46.765Z,1.02
2023-04-29T22:52:19.082Z,1.15
2023-04-29T22:54:52.210Z,0.82
2023-04-29T22:57:24.839Z,1.35
2023-04-29T22:59:56.801Z,1.48
2023-04-29T23:02:30.260Z,0.90
2023-04-29T23:05:01.497Z,1.30
2023-04-29T23:07:31.712Z,0.90
2023-04-29T23:10:01.738Z,0.80
2023-04-29T23:12:34.896Z,1.25
2023-04-29T23:15:05.233Z,1.42
2023-04-29T23:17:37.784Z,1.20
2023-04-29T23:20:09.407Z,0.80
2023-04-29T23:22:39.593Z,0.93
2023-04-29T23:25:11.590Z,1.08
2023-04-29T23:27:56.468Z,0.80
2023-04-29T23:30:26.537Z,0.93
2023-04-29T23:32:57.078Z,1.42
2023-04-29T23:35:27.478Z,0.75
2023-04-29T23:37:57.927Z,1.10
2023-04-29T23:40:28.089Z,1.40
2023-04-29T23:43:00.972Z,1.63
2023-04-29T23:45:30.997Z,1.70
2023-04-29T23:48:01.252Z,0.85
2023-04-29T23:50:31.653Z,1.83
2023-04-29T23:53:01.747Z,1.10
2023-04-29T23:55:31.942Z,1.20
2023-04-29T23:58:04.613Z,0.80
